Waterloo, Indiana
Current Conditions -  °F | °C
As of 6:15 AM on Friday 28 Nov 2014 (Local Time) from KGWB Reporting Station
Overcast Overcast  
Wind Chill: 13°   Ceiling: 11000
Heat Index: 19°   Visibility: 10mi
Dew Point: 18°   Wind: 5mph
Humidity: 93%   Direction: 230°SW
Pressure: 30.37"   Gusts: NA
Location:  41.43°N, 85.02°W
Report Text: KGWB 281115Z AUTO 23004KT 10SM OVC110 M07/M08 A3037 RMK AO2
Loading
Personal Weather Stations






























Interactive Weather Map New forecast layout! Learn more

10-Day Weather Forecast

Advertisements
Track Severe Weather on mobile